Date,TemperatureHighF,TemperatureAvgF,TemperatureLowF,DewpointHighF,DewpointAvgF,DewpointLowF,HumidityHigh,HumidityAvg,HumidityLow,PressureMaxIn,PressureMinIn,WindSpeedMaxMPH,WindSpeedAvgMPH,GustSpeedMaxMPH,PrecipitationSumIn
2013-1-1,57.7,48.0,38.3,33.7,27.0,15.9,74,47,23,30.23,30.11,16,2,27,0.00
2013-1-2,63.1,54.0,47.6,29.4,22.1,13.9,43,29,22,30.12,30.01,24,4,30,0.00
2013-1-3,68.1,55.1,47.0,27.5,21.2,13.9,37,27,15,30.15,30.03,13,2,13,0.00
2013-1-4,63.2,50.8,41.6,25.1,19.9,15.1,39,30,19,30.26,30.15,4,1,7,0.00
2013-1-5,61.7,51.0,42.8,28.3,23.0,18.7,43,34,24,30.27,30.16,5,1,8,0.00
2013-1-6,49.0,45.2,40.7,41.8,38.1,25.4,90,77,43,30.17,30.01,5,1,8,0.09
2013-1-7,66.8,54.8,43.1,35.4,25.4,20.0,74,34,17,30.08,29.97,12,4,23,0.00
2013-1-8,71.7,60.2,51.5,37.9,31.5,23.8,45,34,26,30.08,29.99,7,2,10,0.00
2013-1-9,66.7,58.4,48.0,46.4,38.1,30.6,90,50,32,30.09,29.94,7,2,12,0.00
2013-1-10,49.8,45.3,39.2,44.4,30.8,20.6,92,60,32,30.06,29.87,16,7,20,0.01
2013-1-11,48.0,41.1,35.0,23.6,21.3,18.8,55,45,33,30.18,30.06,13,7,14,0.00
2013-1-12,51.1,41.3,34.0,22.8,19.4,16.3,58,43,26,30.15,30.06,11,2,15,0.00
2013-1-13,49.9,40.9,33.3,24.1,17.8,9.0,53,40,27,30.17,30.05,11,2,19,0.00
2013-1-14,53.2,42.5,36.1,14.4,6.8,-1.3,37,24,14,30.33,30.14,11,3,12,0.00
2013-1-15,57.0,45.6,36.4,22.9,17.0,11.0,40,32,23,30.45,30.33,5,1,8,0.00
2013-1-16,68.9,57.5,45.0,31.7,25.8,20.6,42,30,16,30.36,30.10,15,3,18,0.00
2013-1-17,76.4,63.6,54.3,29.2,22.1,15.9,30,21,13,30.14,30.03,6,2,15,0.00
2013-1-18,74.0,62.0,52.6,28.5,22.0,14.4,31,22,15,30.12,30.04,4,1,7,0.00
2013-1-19,73.7,63.0,55.4,28.0,19.5,13.4,23,19,15,30.15,30.06,4,1,7,0.00
2013-1-20,76.2,64.3,53.2,25.5,16.5,7.5,25,16,10,30.12,29.99,8,2,15,0.00
2013-1-21,77.1,68.0,57.0,26.1,16.6,9.9,20,14,10,30.06,29.96,12,4,22,0.00
2013-1-22,76.0,63.3,54.0,28.3,18.3,9.3,24,18,11,30.08,29.99,4,1,7,0.00
2013-1-23,73.5,64.0,53.4,42.0,32.2,20.3,65,31,22,30.09,29.98,7,2,11,0.01
2013-1-24,59.7,54.5,49.1,55.2,51.5,41.7,95,90,66,30.16,30.03,7,2,12,1.04
2013-1-25,59.5,56.6,54.7,56.6,54.1,52.6,93,91,88,30.13,29.93,5,0,7,0.14
2013-1-26,64.7,57.3,52.3,56.0,53.2,50.5,94,87,71,29.94,29.85,7,2,9,0.01
2013-1-27,52.3,47.6,39.5,50.6,44.3,29.9,95,88,60,30.00,29.91,8,3,13,0.38
2013-1-28,52.9,44.5,37.7,31.1,27.4,24.0,72,52,33,30.19,30.00,13,5,18,0.00
2013-1-29,56.2,46.9,39.7,37.9,33.1,27.0,78,60,43,30.22,30.14,7,2,9,0.00
2013-1-30,67.1,53.7,42.7,41.9,37.6,34.4,77,57,33,30.34,30.20,4,1,7,0.00
2013-1-31,75.5,60.7,49.2,44.4,38.6,32.5,66,45,29,30.23,30.07,5,1,7,0.00
2013-2-1,73.3,62.0,53.7,42.8,38.5,33.6,53,43,29,30.14,30.08,5,1,10,0.00
2013-2-2,72.5,62.7,56.2,48.4,40.9,36.1,74,46,28,30.17,30.08,2,0,7,0.01
2013-2-3,72.4,61.6,51.8,45.0,41.3,35.8,68,49,30,30.12,29.96,8,2,13,0.00
2013-2-4,72.4,59.4,50.6,49.5,41.0,33.3,71,52,37,30.05,29.93,4,1,8,0.00
2013-2-5,58.8,51.2,43.1,49.9,44.4,36.6,91,78,63,30.04,29.94,4,1,7,0.00
2013-2-6,62.3,51.2,44.0,47.5,44.3,40.7,92,78,56,30.09,29.97,5,1,8,0.00
2013-2-7,59.6,49.3,43.3,47.0,42.2,37.3,87,77,62,30.11,29.95,7,2,11,0.00
2013-2-8,47.8,41.6,34.8,40.8,36.0,31.9,90,81,61,29.95,29.84,6,2,9,0.09
2013-2-9,51.1,43.0,34.4,36.4,32.7,29.3,90,68,49,30.10,29.92,10,2,10,0.00
2013-2-10,50.0,43.0,35.2,38.5,35.5,30.9,86,75,60,30.10,30.00,5,1,7,0.00
2013-2-11,59.0,47.8,38.2,35.2,22.2,13.3,85,41,18,30.22,30.05,17,5,20,0.00
2013-2-12,61.6,48.7,39.0,33.2,25.6,18.0,52,41,25,30.33,30.22,5,1,7,0.00
2013-2-13,68.0,54.5,44.5,33.7,28.9,24.5,48,38,25,30.25,30.12,4,1,10,0.00
2013-2-14,74.7,60.9,48.5,39.1,30.5,25.6,45,32,20,30.17,30.04,10,2,19,0.00
2013-2-15,75.9,67.6,59.0,35.0,27.3,19.2,27,22,19,30.15,30.08,18,6,23,0.00
2013-2-16,76.5,64.6,55.0,30.2,22.2,11.9,30,20,12,30.12,29.93,6,1,9,0.00
2013-2-17,66.6,56.3,45.6,46.6,34.0,21.0,89,47,25,29.98,29.86,7,2,12,0.00
2013-2-18,61.2,49.4,42.0,44.7,42.4,38.7,91,78,50,30.02,29.91,7,2,12,0.00
2013-2-19,48.2,44.5,39.2,43.3,39.2,36.5,92,82,69,29.95,29.68,8,3,9,0.25
2013-2-20,56.2,43.8,34.4,36.9,28.8,23.5,92,58,31,30.00,29.67,14,5,16,0.01
2013-2-21,58.5,46.8,37.8,38.2,30.4,21.8,82,56,27,30.09,29.97,8,2,19,0.00
2013-2-22,62.6,50.4,40.3,34.2,28.4,22.5,59,44,26,30.18,30.08,7,1,9,0.00
2013-2-23,63.8,52.7,43.0,42.9,32.1,25.7,64,46,29,30.14,29.89,12,2,14,0.00
2013-2-24,64.1,53.0,46.2,29.8,16.8,7.0,45,25,15,30.17,29.97,14,5,23,0.00
2013-2-25,66.4,52.9,43.3,28.4,22.7,16.2,50,32,19,30.20,30.04,6,1,9,0.00
2013-2-26,70.5,56.3,42.3,35.1,25.3,15.7,50,31,19,30.10,29.97,6,2,7,0.00
2013-2-27,71.7,59.8,47.6,27.5,19.2,13.8,36,21,14,30.24,30.10,12,2,15,0.00
2013-2-28,75.3,63.2,51.2,28.1,21.9,14.4,26,21,16,30.29,30.21,5,2,7,0.00
2013-3-1,81.0,69.8,59.3,33.5,27.8,20.9,28,21,17,30.27,30.12,5,2,9,0.00
2013-3-2,80.1,67.5,58.2,36.4,31.1,25.8,32,26,17,30.17,30.03,5,1,11,0.00
2013-3-3,68.4,60.5,50.3,47.9,36.9,26.4,78,44,27,30.06,29.91,9,3,14,0.00
2013-3-4,66.4,54.7,45.9,49.3,46.3,42.3,90,75,50,30.07,29.95,6,2,11,0.00
2013-3-5,63.9,51.4,44.7,50.0,45.9,40.9,96,82,56,30.08,29.98,8,2,12,0.00
2013-3-6,55.2,49.3,44.9,45.4,43.2,41.3,91,80,61,30.12,29.98,6,2,11,0.03
2013-3-7,52.5,48.2,44.4,45.6,43.4,38.8,93,84,61,29.98,29.82,6,2,10,0.22
2013-3-8,49.4,44.4,37.7,42.4,39.6,35.0,93,84,59,30.01,29.74,6,2,10,0.99
2013-3-9,61.9,50.3,40.8,45.0,40.7,37.2,92,72,45,30.19,30.01,5,1,9,0.00
2013-3-10,71.0,59.0,44.4,39.7,32.8,20.2,75,39,20,30.24,30.13,12,3,20,0.00
2013-3-11,76.2,62.0,50.0,38.6,32.0,26.9,48,33,18,30.15,30.01,6,1,7,0.00
2013-3-12,81.9,66.6,53.4,40.9,34.2,28.9,43,31,20,30.06,29.98,6,1,8,0.00
2013-3-13,87.8,72.6,60.2,44.6,37.2,32.0,38,29,17,30.08,29.98,5,1,9,0.00
2013-3-14,88.4,73.8,62.6,46.3,41.0,35.8,42,32,19,30.03,29.95,5,1,7,0.00
2013-3-15,80.4,69.6,60.5,53.2,43.7,34.5,55,40,29,29.97,29.86,6,2,10,0.00
2013-3-16,76.8,63.3,53.0,52.8,44.2,33.5,77,51,36,29.88,29.81,5,1,7,0.00
2013-3-17,70.8,61.0,51.5,52.0,45.1,33.5,83,57,37,29.93,29.86,8,3,10,0.00
2013-3-18,66.0,54.2,46.8,51.2,47.7,44.3,92,80,58,30.05,29.91,5,1,9,0.00
2013-3-19,70.7,56.6,47.2,52.7,48.4,44.4,95,76,45,30.10,30.00,6,2,10,0.00
2013-3-20,70.1,61.0,53.3,52.6,48.0,44.8,83,63,43,30.07,29.91,5,1,7,0.00
2013-3-21,71.6,61.1,53.9,51.2,45.0,29.1,69,56,35,29.91,29.75,7,2,12,0.00
2013-3-22,74.2,59.3,45.3,51.8,36.4,18.3,81,47,13,29.88,29.75,13,3,16,0.00
2013-3-23,73.7,59.0,46.9,48.7,39.4,23.8,72,50,27,29.97,29.86,5,2,11,0.00
2013-3-24,76.1,62.2,49.5,47.0,40.8,34.1,72,47,30,29.97,29.85,5,1,9,0.00
2013-3-25,75.4,63.8,54.0,50.2,41.8,34.7,56,45,31,29.92,29.84,6,2,10,0.00
2013-3-26,70.5,59.6,49.8,51.5,44.6,35.7,78,58,43,29.91,29.84,7,2,10,0.00
2013-3-27,68.4,56.2,47.4,51.6,48.1,43.7,91,75,49,30.00,29.87,7,3,10,0.00
2013-3-28,74.4,59.5,47.9,52.4,48.8,44.8,89,70,41,30.04,29.97,4,1,7,0.00
2013-3-29,77.2,63.5,51.2,52.4,46.5,41.0,69,56,30,30.06,29.99,6,2,7,0.00
2013-3-30,74.0,61.7,51.4,53.5,45.4,33.8,84,58,28,30.07,29.97,6,2,11,0.00
2013-3-31,62.0,55.6,50.7,53.3,48.1,36.0,88,76,46,30.08,30.01,6,2,11,0.01
2013-4-1,61.6,53.7,46.5,50.3,46.2,43.1,90,77,56,30.13,30.03,7,1,9,0.00
2013-4-2,72.1,57.9,47.0,53.2,48.6,43.7,91,73,50,30.07,29.95,6,2,11,0.01
2013-4-3,79.5,64.3,51.1,52.0,45.4,40.0,76,53,26,30.04,29.95,6,2,11,0.00
2013-4-4,75.1,61.1,49.7,52.2,48.2,39.5,90,65,41,30.05,29.95,5,2,10,0.00
2013-4-5,68.6,58.2,52.0,54.3,51.1,43.1,92,78,58,30.02,29.94,6,2,9,0.00
2013-4-6,72.8,59.8,49.1,53.5,48.1,38.9,88,67,39,30.03,29.91,7,3,12,0.00
2013-4-7,74.7,60.6,51.3,54.4,47.9,39.4,84,64,35,29.93,29.75,8,3,13,0.00
2013-4-8,61.1,54.9,50.6,49.8,38.7,26.3,91,58,32,29.81,29.61,17,6,22,0.00
2013-4-9,73.6,60.8,49.2,35.0,27.1,20.8,52,29,15,29.98,29.81,13,5,21,0.00
2013-4-10,80.2,66.9,53.5,39.4,29.2,20.3,35,25,14,30.05,29.93,8,3,14,0.00
2013-4-11,74.0,62.6,53.1,50.8,39.9,31.3,81,46,26,29.94,29.72,8,3,11,0.00
2013-4-12,78.1,61.3,49.0,54.9,50.2,45.7,91,69,43,29.83,29.74,6,2,7,0.00
2013-4-13,67.1,56.6,48.8,54.6,50.3,46.3,92,80,63,29.85,29.77,7,2,11,0.00
2013-4-14,61.5,52.5,48.9,50.7,48.6,47.0,93,87,66,29.84,29.78,7,2,9,0.01
2013-4-15,58.6,52.5,48.0,50.8,47.8,43.9,94,84,70,29.86,29.79,7,4,11,0.05
2013-4-16,63.6,53.5,45.0,44.0,32.0,22.8,89,49,22,29.97,29.82,14,7,20,0.00
2013-4-17,69.6,57.5,47.5,28.8,24.4,19.3,43,29,16,30.12,29.97,12,5,17,0.00
2013-4-18,74.0,62.9,51.5,29.1,22.7,16.0,36,22,16,30.17,30.08,17,5,29,0.00
2013-4-19,81.2,67.8,54.3,33.0,25.9,18.3,30,21,14,30.14,29.95,7,2,10,0.00
2013-4-20,86.7,72.4,57.9,41.3,35.7,30.0,36,27,17,29.95,29.83,8,3,13,0.00
2013-4-21,83.8,70.4,59.4,49.8,41.6,33.9,51,36,23,29.93,29.86,7,2,11,0.00
2013-4-22,75.0,61.2,49.9,52.7,48.1,39.4,87,64,43,29.92,29.83,7,2,12,0.00
2013-4-23,78.3,62.2,52.1,52.0,49.8,47.7,87,67,37,29.91,29.82,5,2,10,0.00
2013-4-24,60.5,54.1,51.9,52.4,50.1,47.5,92,86,73,29.95,29.83,7,2,13,0.01
2013-4-25,68.3,58.0,51.6,49.3,47.6,45.5,89,70,47,30.08,29.92,5,2,9,0.00
2013-4-26,76.2,62.9,50.3,52.3,47.9,43.0,79,60,42,30.12,30.05,7,2,11,0.00
2013-4-27,84.9,72.5,55.3,56.1,48.9,37.6,74,45,26,30.08,29.93,5,2,10,0.00
2013-4-28,86.9,69.2,54.8,58.6,51.9,43.4,77,56,34,29.94,29.78,6,1,11,0.00
2013-4-29,79.2,64.7,50.3,58.0,53.4,47.2,92,69,48,29.83,29.72,8,2,12,0.00
2013-4-30,68.4,59.5,51.9,53.6,51.2,48.0,89,75,59,29.85,29.76,7,3,11,0.00
2013-5-1,81.4,65.4,54.1,56.8,51.0,22.7,89,65,12,30.04,29.85,7,2,16,0.00
2013-5-2,88.2,76.7,55.6,51.6,24.7,14.2,82,21,9,30.08,29.95,21,8,34,0.00
2013-5-3,88.4,73.1,63.8,28.9,22.5,15.1,22,15,10,29.97,29.73,4,1,9,0.00
2013-5-4,74.8,65.0,54.8,52.2,41.3,22.5,82,46,19,29.77,29.66,9,4,18,0.00
2013-5-5,59.3,54.8,51.3,50.4,48.6,47.4,92,80,65,29.91,29.75,9,6,15,0.03
2013-5-6,58.0,53.7,51.0,53.1,50.3,48.1,94,89,76,29.98,29.85,7,3,14,0.81
2013-5-7,62.9,55.7,49.5,50.6,47.9,44.0,93,76,57,30.03,29.96,6,1,10,0.41
2013-5-8,65.7,57.7,52.5,50.4,48.5,46.1,90,72,56,30.06,30.02,6,2,11,0.00
2013-5-9,72.4,59.8,50.8,55.6,50.8,45.5,91,73,52,30.06,29.98,7,2,11,0.06
2013-5-10,82.3,67.0,53.0,60.1,54.8,50.4,92,68,39,30.05,29.97,6,1,9,0.01
2013-5-11,92.1,76.6,60.3,59.7,51.8,45.5,77,46,21,30.02,29.93,7,2,11,0.00
2013-5-12,96.0,82.6,68.5,54.2,48.5,42.0,48,33,16,29.99,29.86,7,2,14,0.00
2013-5-13,97.3,83.8,71.3,52.3,46.6,42.4,38,28,18,29.90,29.82,6,2,13,0.00
2013-5-14,81.9,72.3,59.0,54.2,47.1,36.5,71,42,23,29.91,29.81,9,4,13,0.00
2013-5-15,74.8,62.5,53.7,56.2,51.8,46.2,83,69,52,29.97,29.89,6,2,10,0.00
2013-5-16,71.4,61.2,54.3,55.9,53.1,51.0,90,76,57,29.92,29.84,6,2,10,0.00
2013-5-17,69.0,60.9,55.4,55.5,52.9,51.4,87,76,59,29.95,29.85,7,2,10,0.00
2013-5-18,75.1,62.7,51.4,56.7,52.1,46.2,90,70,51,29.99,29.92,7,2,10,0.00
2013-5-19,80.7,66.2,51.7,58.4,51.5,41.3,77,60,44,29.93,29.82,7,2,11,0.00
2013-5-20,89.0,72.0,56.7,56.8,48.7,41.9,75,47,20,29.89,29.83,6,2,12,0.00
2013-5-21,82.9,68.5,55.4,60.0,55.3,45.3,87,65,38,29.86,29.75,8,3,13,0.00
2013-5-22,73.0,62.9,56.6,56.9,54.2,52.1,90,75,53,29.78,29.71,7,3,12,0.00
2013-5-23,67.4,59.9,52.1,52.4,49.5,44.4,87,69,55,29.89,29.76,8,2,10,0.00
2013-5-24,70.8,60.4,49.9,54.1,49.4,44.7,85,68,52,29.94,29.86,7,2,11,0.00
2013-5-25,72.0,60.1,49.6,53.4,49.6,44.0,89,70,48,29.98,29.92,6,2,11,0.00
2013-5-26,71.3,60.8,49.9,55.8,50.8,44.6,87,71,52,30.00,29.94,7,2,12,0.00
2013-5-27,76.8,63.2,51.3,57.5,52.8,47.8,89,71,46,29.95,29.80,7,2,12,0.00
2013-5-28,82.5,67.9,55.0,55.6,49.8,40.2,87,56,25,29.83,29.70,12,5,17,0.00
2013-5-29,87.6,72.8,60.0,59.5,50.3,41.8,65,47,29,29.74,29.64,11,3,13,0.00
2013-5-30,81.9,69.5,59.0,60.7,55.4,46.8,81,62,45,29.81,29.69,7,3,13,0.00
2013-5-31,85.0,69.6,58.4,61.3,58.3,54.9,91,70,45,29.84,29.76,5,2,7,0.00
2013-6-1,98.6,74.9,59.7,64.9,57.6,44.3,88,59,16,29.80,29.67,7,2,13,0.00
2013-6-2,78.1,66.0,57.3,62.1,58.1,54.7,93,77,56,29.76,29.69,8,3,13,0.00
2013-6-3,76.4,63.5,57.5,58.3,55.1,52.7,87,75,53,29.84,29.73,7,2,15,0.00
2013-6-4,77.1,64.2,56.9,58.4,55.4,52.3,88,74,52,29.91,29.83,6,2,11,0.00
2013-6-5,79.9,64.6,54.3,59.6,54.9,50.6,91,73,49,29.95,29.85,5,2,9,0.00
2013-6-6,80.1,65.4,53.8,60.4,56.0,50.0,92,73,51,29.89,29.81,6,2,9,0.00
2013-6-7,82.3,65.1,54.4,62.3,56.5,52.1,93,76,50,29.85,29.72,6,1,9,0.00
2013-6-8,79.8,65.8,55.9,61.1,57.3,53.6,93,76,51,29.84,29.72,7,2,11,0.00
2013-6-9,78.9,65.4,57.0,60.6,56.8,52.4,91,75,51,29.86,29.80,9,3,18,0.00
2013-6-10,76.4,65.1,55.9,55.9,54.0,52.5,91,69,48,29.90,29.82,9,3,12,0.00
2013-6-11,87.3,73.1,57.9,61.3,54.1,48.5,77,53,35,29.89,29.83,6,2,7,0.00
2013-6-12,79.3,66.6,56.7,61.7,57.5,51.6,89,74,54,29.94,29.84,8,2,14,0.00
2013-6-13,81.8,67.4,53.7,60.1,56.5,51.1,92,70,46,29.95,29.84,7,2,10,0.00
2013-6-14,79.4,66.2,54.4,58.9,54.8,48.7,86,68,49,29.85,29.78,7,2,12,0.00
2013-6-15,76.0,65.0,55.9,57.1,54.3,51.1,91,70,48,29.92,29.82,7,2,15,0.00
2013-6-16,81.2,66.6,52.1,58.9,54.0,45.4,91,66,42,29.98,29.89,7,2,11,0.00
2013-6-17,85.1,70.7,58.7,59.8,53.7,42.7,69,55,41,29.91,29.82,7,2,12,0.00
2013-6-18,81.2,69.8,61.0,59.5,54.1,47.2,69,58,45,29.85,29.76,8,3,13,0.00
2013-6-19,81.4,69.3,56.7,57.5,51.2,38.3,78,55,29,29.81,29.73,7,3,12,0.00
2013-6-20,80.8,69.9,58.1,59.0,48.5,35.0,53,47,41,29.80,29.74,7,3,11,0.00
2013-6-21,81.2,70.2,59.2,57.7,49.4,39.4,58,48,40,29.84,29.77,7,2,12,0.00
2013-6-22,81.1,69.0,56.8,59.4,53.9,47.0,75,59,47,29.84,29.75,6,2,13,0.00
2013-6-23,75.0,64.6,55.6,57.9,55.0,48.6,89,72,54,29.81,29.73,7,3,13,0.00
2013-6-24,71.5,63.2,58.0,58.0,55.9,54.2,90,78,62,29.89,29.77,6,2,9,0.00
2013-6-25,79.8,67.8,57.0,62.2,58.3,53.5,90,73,55,29.95,29.86,7,2,11,0.00
2013-6-26,91.1,77.5,64.6,65.0,60.9,57.2,78,59,40,29.92,29.85,8,2,10,0.00
2013-6-27,94.7,81.5,67.7,64.2,59.7,56.5,69,49,32,29.96,29.90,6,2,11,0.00
2013-6-28,96.5,83.4,70.5,65.0,59.2,53.3,56,45,34,29.91,29.79,6,2,10,0.00
2013-6-29,101.8,87.7,73.8,66.1,58.5,48.6,52,38,28,29.81,29.68,5,1,10,0.00
2013-6-30,99.4,85.2,74.7,66.1,58.3,47.9,61,42,26,29.73,29.63,9,2,12,0.00
2013-7-1,95.8,81.8,69.4,63.7,60.1,55.9,72,50,28,29.81,29.71,8,2,12,0.00
2013-7-2,89.0,79.1,70.4,65.5,59.8,51.5,71,53,34,29.90,29.80,9,2,14,0.00
2013-7-3,89.5,77.4,67.9,64.4,59.5,55.3,72,55,42,29.84,29.73,7,2,11,0.00
2013-7-4,89.8,76.7,65.6,64.1,58.5,53.8,78,55,35,29.76,29.68,8,3,11,0.00
2013-7-5,84.1,71.8,61.0,62.6,59.3,55.0,89,67,38,29.76,29.69,9,2,14,0.00
2013-7-6,87.5,70.9,60.2,64.8,60.6,57.1,92,73,44,29.76,29.68,6,1,9,0.00
2013-7-7,93.5,76.2,59.1,64.5,57.3,44.2,89,57,27,29.79,29.71,5,1,7,0.00
2013-7-8,98.7,80.6,67.9,60.2,52.2,42.8,65,40,21,29.85,29.78,5,1,7,0.00
2013-7-9,94.9,84.6,72.2,64.9,54.3,41.9,65,36,26,29.90,29.82,9,2,14,0.00
2013-7-10,80.2,74.1,68.1,61.9,59.0,54.0,74,60,45,29.90,29.83,8,3,11,0.00
2013-7-11,76.4,69.7,64.2,65.1,61.9,56.6,87,76,61,29.91,29.84,5,1,10,0.01
2013-7-12,86.3,74.0,63.6,65.6,61.6,54.0,89,67,46,29.88,29.79,7,2,10,0.00
2013-7-13,93.2,76.6,61.7,63.3,55.6,48.7,76,51,25,29.88,29.79,7,2,11,0.00
2013-7-14,93.3,77.4,65.1,63.6,56.7,51.0,70,51,30,29.85,29.75,6,2,11,0.00
2013-7-15,91.6,76.7,64.7,59.7,53.9,48.1,71,48,24,29.80,29.72,7,2,10,0.00
2013-7-16,88.2,75.0,62.4,49.4,44.4,35.9,53,35,23,29.91,29.78,6,2,11,0.00
2013-7-17,81.8,68.6,63.2,42.5,37.4,33.4,37,32,23,29.95,29.90,5,1,7,0.00
2013-7-18,92.2,80.7,65.1,60.2,52.1,36.7,52,38,29,29.90,29.78,5,2,10,0.00
2013-7-19,88.7,75.9,65.1,63.5,55.1,45.0,74,49,40,29.82,29.74,8,2,12,0.00
2013-7-20,84.9,69.6,60.0,64.8,60.1,55.8,88,73,51,29.81,29.71,9,2,12,0.00
2013-7-21,77.0,70.3,65.4,63.5,61.6,59.8,82,74,57,29.87,29.74,5,2,9,0.00
2013-7-22,86.2,74.2,65.0,65.9,63.0,59.7,91,70,50,29.92,29.84,7,2,10,0.03
2013-7-23,86.2,73.7,64.4,63.0,59.7,57.1,81,63,45,29.95,29.86,6,1,10,0.00
2013-7-24,90.1,75.5,64.1,63.3,59.2,56.0,76,58,38,29.91,29.81,5,1,10,0.00
2013-7-25,89.6,75.2,63.2,64.4,59.7,55.8,77,60,41,29.93,29.84,6,2,11,0.00
2013-7-26,83.7,73.5,62.7,65.0,62.0,57.1,90,69,52,30.01,29.91,6,2,9,0.02
2013-7-27,86.6,74.5,64.5,63.8,61.0,58.1,81,64,45,29.94,29.79,6,2,11,0.00
2013-7-28,81.0,68.0,58.1,62.2,58.6,55.0,92,73,52,29.86,29.79,9,2,12,0.00
2013-7-29,82.2,68.0,55.9,59.4,56.2,53.0,91,69,46,29.97,29.85,7,2,12,0.00
2013-7-30,82.9,69.5,58.0,59.1,55.7,52.3,83,63,42,30.05,29.96,6,2,7,0.00
2013-7-31,78.7,65.7,55.4,59.6,55.0,50.1,88,70,51,30.03,29.93,7,2,9,0.00
2013-8-1,79.4,65.9,52.3,59.3,55.4,49.4,92,71,50,29.97,29.85,8,2,13,0.00
2013-8-2,82.4,67.7,54.7,59.3,56.0,50.2,87,68,43,29.91,29.85,6,2,13,0.00
2013-8-3,84.5,68.2,55.0,61.3,57.0,50.6,92,70,43,29.93,29.87,7,2,10,0.00
2013-8-4,85.2,70.5,56.6,60.8,53.8,43.3,83,58,30,29.95,29.87,5,1,10,0.00
2013-8-5,88.5,72.6,60.0,56.0,46.4,34.9,55,40,27,29.93,29.85,7,2,13,0.00
2013-8-6,82.9,69.5,53.7,57.7,50.4,39.4,74,51,35,29.96,29.88,7,2,11,0.00
2013-8-7,83.2,69.3,57.6,58.8,51.8,41.6,64,54,41,30.00,29.91,8,2,11,0.00
2013-8-8,81.8,69.6,59.8,59.2,51.6,44.2,65,53,38,29.92,29.84,8,3,15,0.00
2013-8-9,78.9,67.6,54.9,57.7,49.7,41.1,67,53,33,29.91,29.83,8,2,11,0.00
2013-8-10,80.2,67.1,54.9,59.0,53.4,45.1,75,62,47,29.96,29.89,7,2,9,0.00
2013-8-11,84.2,70.5,58.2,59.4,54.3,48.7,79,58,39,29.92,29.83,6,2,10,0.00
2013-8-12,86.1,71.3,58.0,61.6,55.6,49.9,77,59,40,29.91,29.83,6,2,7,0.00
2013-8-13,92.0,74.0,57.4,62.7,57.5,52.2,84,59,36,29.91,29.81,5,1,10,0.00
2013-8-14,98.0,77.3,61.7,62.2,55.9,43.1,78,51,24,29.85,29.75,5,1,7,0.00
2013-8-15,92.4,78.7,64.8,61.0,55.1,44.8,77,46,28,29.87,29.80,8,2,11,0.00
2013-8-16,92.6,80.0,67.9,60.4,52.9,45.7,58,40,27,29.88,29.83,6,2,10,0.00
2013-8-17,94.4,80.8,69.0,59.8,50.9,46.9,52,37,24,29.87,29.73,5,2,11,0.00
2013-8-18,92.4,78.3,67.3,62.9,55.0,45.9,74,46,29,29.82,29.72,8,2,11,0.00
2013-8-19,87.4,75.2,66.7,64.5,59.4,52.4,72,58,45,29.85,29.77,6,1,10,0.00
2013-8-20,92.1,76.8,64.2,60.7,54.1,43.0,71,48,24,29.85,29.77,7,2,12,0.00
2013-8-21,96.1,81.4,68.4,53.7,47.8,42.9,46,33,17,29.85,29.76,6,2,12,0.00
2013-8-22,96.1,83.4,72.0,52.0,45.4,34.6,40,27,18,29.84,29.73,6,2,7,0.00
2013-8-23,93.9,80.5,68.1,51.0,43.8,35.8,39,28,18,29.78,29.67,7,3,10,0.00
2013-8-24,91.3,77.5,65.2,54.1,45.5,37.3,44,33,18,29.80,29.69,8,2,12,0.00
2013-8-25,91.0,78.3,67.6,62.0,49.7,40.2,53,38,19,29.85,29.78,8,3,11,0.00
2013-8-26,89.5,79.9,71.1,63.4,56.5,42.3,56,45,34,29.86,29.76,7,2,12,0.00
2013-8-27,91.3,81.1,74.2,64.3,61.2,57.2,64,52,40,29.78,29.69,7,2,10,0.00
2013-8-28,93.9,82.2,72.4,62.4,59.6,54.5,64,48,27,29.83,29.70,6,2,10,0.00
2013-8-29,98.2,85.0,73.5,60.5,56.5,50.6,57,40,27,29.87,29.80,7,2,12,0.00
2013-8-30,92.4,84.3,78.5,67.8,62.5,52.1,65,49,36,29.90,29.83,8,2,12,0.00
2013-8-31,89.3,81.5,75.4,69.4,66.9,65.2,72,62,47,29.89,29.81,6,2,10,0.00
2013-9-1,89.4,79.4,72.4,67.9,66.5,64.4,79,66,47,29.86,29.78,6,2,10,0.00
2013-9-2,93.1,80.2,69.2,68.1,64.3,59.6,79,60,33,29.85,29.74,5,1,10,0.00
2013-9-3,95.2,83.6,73.4,63.2,59.1,53.9,65,45,30,29.84,29.75,7,2,10,0.00
2013-9-4,97.9,85.2,75.2,64.2,58.3,55.1,53,41,29,29.84,29.76,6,2,12,0.00
2013-9-5,99.2,86.0,75.0,61.6,56.8,50.5,52,38,25,29.82,29.74,6,2,11,0.00
2013-9-6,99.2,86.5,75.9,58.0,53.4,49.3,42,33,23,29.80,29.71,7,2,9,0.00
2013-9-7,97.0,84.7,75.5,60.5,52.0,45.9,39,33,24,29.80,29.71,6,3,13,0.00
2013-9-8,92.4,81.1,71.3,60.3,49.3,44.3,41,33,23,29.77,29.67,7,2,9,0.00
2013-9-9,88.6,76.5,66.6,59.3,53.1,47.8,65,45,29,29.73,29.65,7,2,13,0.00
2013-9-10,83.3,69.3,58.3,59.1,54.6,47.9,79,61,36,29.87,29.72,7,2,10,0.00
2013-9-11,82.0,68.9,57.5,59.9,55.4,50.3,85,64,42,29.93,29.87,5,1,9,0.00
2013-9-12,89.5,74.6,62.9,58.0,50.2,41.0,73,44,24,29.88,29.77,6,1,8,0.00
2013-9-13,90.4,79.7,67.9,57.9,49.7,40.6,44,35,27,29.74,29.61,5,2,8,0.00
2013-9-14,96.7,82.5,71.3,60.7,53.9,49.2,49,38,28,29.65,29.57,4,1,7,0.00
2013-9-15,97.8,83.0,70.9,57.0,50.7,45.4,45,34,19,29.70,29.61,5,1,10,0.00
2013-9-16,94.5,78.5,70.7,52.1,46.2,41.7,41,33,21,29.75,29.69,4,1,7,0.00
2013-9-17,84.2,73.0,63.4,60.6,51.3,37.5,72,48,31,29.73,29.64,9,2,14,0.00
2013-9-18,78.7,65.9,53.8,59.3,54.7,49.1,87,69,48,29.75,29.67,6,1,12,0.00
2013-9-19,62.5,60.3,58.4,55.4,53.4,51.6,80,78,74,29.74,29.71,0,0,7,0.00
2013-10-1,80.9,70.1,60.1,57.8,55.5,50.1,81,63,35,29.85,29.80,6,3,12,0.00
2013-10-2,76.4,62.8,56.0,57.1,54.8,52.4,90,76,47,29.91,29.82,6,2,10,0.00
2013-10-3,71.4,61.6,53.1,57.2,53.8,49.5,90,77,54,29.88,29.76,6,2,13,0.00
2013-10-4,80.8,66.9,53.4,53.0,35.0,22.0,91,43,12,30.02,29.83,29,7,29,0.00
2013-10-5,86.2,76.1,70.0,32.9,25.2,15.5,18,15,12,30.07,29.98,41,9,41,0.00
2013-10-6,89.0,74.0,61.7,31.8,24.9,17.0,23,16,11,30.04,29.90,13,2,13,0.00
2013-10-7,84.0,71.3,62.8,43.3,30.8,23.2,39,23,15,29.92,29.83,7,2,15,0.00
2013-10-8,71.5,61.9,53.7,53.5,43.4,27.9,86,53,27,29.86,29.75,8,3,17,0.00
2013-10-9,56.1,52.2,48.5,51.1,47.8,43.8,92,85,79,29.77,29.65,8,3,20,0.40
2013-10-10,64.1,52.8,43.4,47.6,43.9,39.8,88,73,47,30.00,29.77,6,1,14,0.00
2013-10-11,74.2,59.7,48.5,49.3,45.1,41.6,84,61,33,30.01,29.92,8,1,17,0.00
2013-10-12,75.4,62.4,52.8,51.2,42.6,37.7,61,49,33,29.93,29.84,7,2,14,0.00
2013-10-13,69.0,57.4,48.8,52.6,49.0,42.7,88,75,49,29.98,29.88,8,2,15,0.00
2013-10-14,81.0,67.3,50.7,49.2,39.9,26.1,89,42,21,29.99,29.89,7,2,18,0.00
2013-10-15,81.8,72.4,63.8,39.0,32.1,26.4,28,23,20,29.92,29.82,11,2,23,0.00
2013-10-16,81.1,70.1,59.9,34.5,30.4,25.4,32,23,18,30.01,29.92,7,2,15,0.00
2013-10-17,80.5,67.4,57.4,38.9,32.0,25.9,36,27,20,29.99,29.88,6,1,13,0.00
2013-10-18,85.3,70.0,57.7,46.5,36.1,27.7,40,30,18,29.97,29.89,4,1,13,0.00
2013-10-19,87.0,72.4,62.0,41.4,34.3,27.2,33,25,17,29.98,29.90,4,1,11,0.00
2013-10-20,80.8,68.2,59.0,55.8,41.6,29.0,63,40,23,29.92,29.83,6,1,12,0.00
2013-10-21,81.3,67.6,56.5,52.8,43.4,31.2,56,43,28,29.93,29.84,4,1,11,0.00
2013-10-22,82.5,69.0,57.4,52.7,42.5,31.9,78,41,22,29.93,29.84,5,1,12,0.00
2013-10-23,73.3,58.8,49.2,55.5,49.9,36.6,90,73,43,29.92,29.83,6,1,12,0.00
2013-10-24,71.8,58.7,53.5,54.3,51.4,49.3,89,78,53,30.00,29.91,5,1,13,0.00
2013-10-25,78.7,62.0,49.5,55.1,50.1,40.6,92,68,42,30.08,29.99,3,1,9,0.00
2013-10-26,85.0,72.7,60.3,51.7,39.1,31.7,58,31,20,30.04,29.92,5,1,9,0.00
2013-10-27,77.5,66.1,54.9,57.2,43.8,27.9,92,49,25,29.92,29.71,9,2,16,0.00
2013-10-28,59.9,53.3,49.3,52.0,46.6,42.8,90,78,55,29.90,29.72,10,4,21,0.02
2013-10-29,59.4,51.8,45.1,49.1,44.0,40.6,87,76,54,29.98,29.89,6,1,13,0.01
2013-10-30,69.0,55.1,44.8,47.2,43.5,40.1,87,67,40,30.04,29.96,4,1,10,0.00
2013-10-31,77.5,62.3,50.8,41.8,37.3,29.5,66,41,24,30.07,29.96,4,1,10,0.00
2013-11-1,82.1,68.1,56.3,37.1,33.6,29.9,40,29,19,30.07,29.92,4,1,11,0.00
2013-11-2,79.5,66.4,56.7,46.8,34.9,29.9,67,32,21,29.96,29.82,8,2,15,0.00
2013-11-3,68.3,56.9,48.7,51.7,47.5,37.8,84,72,51,29.86,29.77,5,2,13,0.00
2013-11-4,63.1,55.5,49.8,51.0,48.3,31.0,92,78,35,29.91,29.75,10,1,21,0.06
2013-11-5,73.8,62.1,54.1,42.2,27.8,18.8,64,28,14,30.11,29.91,9,3,24,0.00
2013-11-6,79.2,64.5,53.4,30.7,24.9,19.0,31,23,15,30.18,30.09,5,1,9,0.00
2013-11-7,82.7,68.7,60.1,34.3,27.4,21.4,29,22,14,30.09,29.96,3,1,7,0.00
2013-11-8,78.6,66.0,57.6,47.5,31.6,22.1,53,29,18,29.98,29.88,6,2,12,0.00
2013-11-9,74.8,62.3,54.4,43.9,32.4,23.6,50,33,21,30.03,29.94,7,2,16,0.00
2013-11-10,81.3,64.9,57.1,45.9,30.6,17.5,54,29,11,30.08,29.99,5,1,12,0.00
2013-11-11,81.7,67.4,56.9,41.4,31.5,24.0,33,27,18,30.08,29.99,4,1,9,0.00
2013-11-12,81.5,70.6,62.4,42.2,36.1,31.0,34,28,21,30.12,30.03,2,0,5,0.00
2013-11-13,89.2,76.8,64.1,40.4,34.6,28.5,33,22,15,30.03,29.86,13,2,24,0.00
2013-11-14,87.0,76.8,64.8,37.7,33.4,29.2,34,21,16,29.88,29.68,8,3,22,0.00
2013-11-15,64.8,58.2,52.2,52.1,46.3,31.4,87,67,33,29.71,29.60,8,2,16,0.00
2013-11-16,58.7,54.1,49.7,50.2,47.6,44.7,89,79,65,29.90,29.70,6,2,15,0.00
2013-11-17,64.1,54.9,46.2,49.7,46.6,41.6,87,74,55,30.06,29.90,5,1,12,0.00
2013-11-18,64.5,55.3,48.5,51.4,47.4,42.1,86,75,61,30.12,30.01,4,1,12,0.00
2013-11-19,54.4,54.3,54.3,49.0,48.9,48.9,82,82,82,30.05,30.04,1,1,4,0.00
2013-11-23,60.4,52.3,46.3,38.9,37.4,36.1,69,57,44,30.06,29.96,6,1,13,0.00
2013-11-24,63.2,53.8,46.6,41.2,38.9,36.3,71,58,44,30.17,30.05,7,2,22,0.00
2013-11-25,70.0,57.3,47.6,44.3,38.5,32.7,64,50,34,30.22,30.13,6,2,11,0.00
2013-11-26,73.0,61.4,53.4,39.6,35.8,32.9,48,39,28,30.17,30.02,4,1,10,0.00
2013-11-27,70.4,60.1,54.0,39.9,36.3,33.0,53,42,29,30.02,29.84,7,2,17,0.00
2013-11-28,65.8,57.6,51.9,44.0,37.9,32.8,62,48,35,30.03,29.84,8,3,19,0.00
2013-11-29,58.7,54.4,51.9,54.1,46.6,39.5,88,75,56,30.16,30.02,7,1,20,0.18
2013-11-30,72.7,62.3,52.1,46.6,41.0,29.3,69,48,27,30.17,30.05,5,1,19,0.00
2013-12-1,76.5,66.1,58.4,38.4,32.2,27.4,40,29,22,30.17,30.06,10,2,28,0.00
2013-12-2,73.1,62.5,55.2,37.9,31.0,24.3,42,31,21,30.08,29.86,7,1,12,0.00
2013-12-3,61.3,55.1,48.0,49.5,41.3,30.0,87,62,37,29.86,29.69,17,3,17,0.00
2013-12-4,57.4,47.8,38.0,42.2,29.6,13.8,84,51,23,29.94,29.71,14,2,14,0.00
2013-12-5,54.1,44.7,37.9,34.9,31.2,23.5,75,60,32,30.09,29.92,11,1,11,0.00
2013-12-6,55.2,45.3,38.2,38.5,35.2,29.8,80,68,43,30.16,30.07,14,2,14,0.00
2013-12-7,48.7,43.1,35.1,44.2,36.5,24.8,91,78,49,30.09,29.97,18,2,19,0.11
2013-12-8,50.4,41.2,34.8,35.5,30.7,21.6,83,67,50,30.20,30.08,11,1,11,0.00
2013-12-9,57.3,45.9,34.9,26.7,12.5,0.3,61,31,11,30.27,30.18,45,5,45,0.00
2013-12-10,61.1,48.5,41.4,20.2,13.1,7.2,29,24,18,30.21,30.13,10,1,10,0.00
2013-12-11,68.8,56.2,45.6,25.0,18.5,9.9,28,23,17,30.16,30.09,12,1,13,0.00
2013-12-12,66.3,55.1,47.4,43.3,28.0,14.7,70,39,20,30.18,30.10,18,1,18,0.00
2013-12-13,63.9,53.7,42.7,40.5,32.9,19.1,65,47,20,30.19,30.10,27,2,27,0.00
2013-12-14,71.9,62.8,55.9,31.9,25.0,18.0,30,24,19,30.25,30.15,29,3,29,0.00
2013-12-15,78.8,64.9,54.3,33.6,26.0,19.1,28,23,16,30.21,30.07,11,1,11,0.00
2013-12-16,82.7,70.0,60.9,36.6,30.8,25.1,28,24,17,30.10,30.03,12,1,12,0.00
2013-12-17,82.2,70.7,63.1,39.3,32.9,29.0,33,25,18,30.07,29.95,9,1,9,0.00
2013-12-18,70.2,61.3,50.9,51.5,41.3,30.2,89,53,27,29.97,29.77,15,3,16,0.00
2013-12-19,51.0,46.8,43.3,46.6,42.6,35.1,92,86,56,29.78,29.67,30,3,30,0.42
2013-12-20,60.7,50.5,42.9,41.9,34.8,29.2,80,56,38,29.92,29.73,36,4,36,0.00
2013-12-21,57.1,48.4,42.4,45.0,41.2,34.6,89,76,62,30.07,29.89,8,2,12,0.00
2013-12-22,68.7,55.0,44.1,42.5,39.8,35.8,90,60,31,30.24,30.07,7,1,11,0.00
2013-12-23,72.5,59.6,50.5,40.3,36.6,32.7,57,43,30,30.30,30.17,6,1,9,0.00
2013-12-24,76.1,64.5,54.3,40.6,32.9,21.7,44,32,17,30.17,30.07,17,2,27,0.00
2013-12-25,77.9,70.5,65.4,24.4,18.6,11.1,19,14,11,30.14,30.06,23,7,29,0.00
2013-12-26,78.1,67.7,57.7,28.1,18.2,11.3,22,15,11,30.11,30.01,23,3,27,0.00
2013-12-27,79.6,66.7,58.0,26.8,19.0,10.0,21,16,11,30.13,30.00,6,1,10,0.00
2013-12-28,72.7,62.3,55.0,34.9,25.2,18.2,40,25,18,29.99,29.87,10,2,11,0.00
2013-12-29,74.3,63.2,54.9,32.2,17.1,7.9,24,17,10,30.11,29.95,20,3,33,0.00
2013-12-30,71.3,59.3,52.7,26.6,19.7,11.6,29,22,14,30.21,30.10,7,1,9,0.00
2013-12-31,71.9,59.2,51.6,32.2,23.8,17.1,37,26,16,30.17,30.05,7,1,11,0.00
2014-1-1,74.7,62.4,51.9,34.5,26.5,20.1,32,26,19,30.09,30.01,9,1,13,0.00
2014-1-2,78.5,65.5,57.8,33.7,29.4,24.9,33,26,18,30.07,29.96,9,1,10,0.00